Tuesday, July 22, 2014
15:23 UTC
  |  Log In   |  Register Free
Airport Search:

Dawson Municipal Airport
(16J)

Dawson Municipal Airport Diagram
No Airport Diagram Available

FAA data valid effective May 29, 2014 until July 24, 2014 (unless otherwise noted).

 
 
 
 
 
 
 
 
 
 
 
 
 
 

Current Aviation Weather for Dawson Municipal Airport (16J)

The most recent METAR observation for KABY was updated at: 1453 UTC
METAR Summary (Translated METAR)
KABY
221453Z 00000KT 10SM BKN015 27/21 A3013 RMK AO2 SLP199 T02720211 50004
KMGR
(33.7 nm SE from KABY)
221435Z AUTO 00000KT 10SM CLR 26/22 A3012 RMK AO2 LTG DSNT SE
TAF Summary (Translated TAF)
KABY
221120Z 2212/2312 09005KT P6SM SCT040 BKN250 TEMPO 2212/2214 BKN015 FM222000 15005KT P6SM -TSRA BKN040CB FM230000 17004KT P6SM SCT050 BKN250
  Airport Weather Conditions for 16J

Current weather conditions are
not available for 16J


The nearest NOAA weather station
is at ABY, (17 nm SE from 16J)
  
 Current Weather at ABY
81° F
Mostly Cloudy
North winds at 0.0 mph
ABY NOAA Radar

Pressure: 30.13 in
Humidity: 69%
Wind: Calm
Dew Point: 70.0°F
Visibility: 10.00 mi


Airport Weather Forecast for 16J

Translated METAR and TAF for KABY
Translated METAR for KABY (1516 UTC 22 July 2014)
found at http://aviationweather.gov/adds/metars/
 
METAR text: KABY 221453Z 00000KT 10SM BKN015 27/21 A3013 RMK AO2 SLP199 T02720211 50004
Conditions at: KABY (ALBANY , GA, US) observed 1453 UTC 22 July 2014
Temperature: 27.2°C (81°F)
Dewpoint: 21.1°C (70°F) [RH = 69%]
Pressure (altimeter): 30.13 inches Hg (1020.4 mb)
[Sea-level pressure: 1019.9 mb]
Winds: calm
Visibility: 10 or more miles (16+ km)
Ceiling: 1500 feet AGL
Clouds: broken clouds at 1500 feet AGL
Weather: no significant weather observed at this time
Translated TAF for KABY
Forecast for: KABY (ALBANY , GA, US)
TAF Text: KABY 221156Z 2212/2312 09005KT P6SM SCT008 SCT040 BKN250
Forecast period: 1200 to 2000 UTC 22 July 2014
Forecast type: FROM: standard forecast or significant change
Winds: from the E (90 degrees) at 6 MPH (5 knots; 2.6 m/s)
Visibility: 6 or more miles (10+ km)
Ceiling: 25000 feet AGL
Clouds: scattered clouds at 800 feet AGL
scattered clouds at 4000 feet AGL
broken clouds at 25000 feet AGL
Weather: no significant weather forecast for this period
TAF Text: TEMPO 2212/2213 BKN005
Forecast period: 1200 to 1300 UTC 22 July 2014
Forecast type: TEMPORARY: The following changes expected for less than half the time period
Ceiling: 500 feet AGL
Clouds: broken clouds at 500 feet AGL
Weather: no significant weather forecast for this period
TAF Text: FM222000 15005KT P6SM -TSRA BKN040CB
Forecast period: 2000 UTC 22 July 2014 to 0000 UTC 23 July 2014
Forecast type: FROM: standard forecast or significant change
Winds: from the SSE (150 degrees) at 6 MPH (5 knots; 2.6 m/s)
Visibility: 6 or more miles (10+ km)
Ceiling: 4000 feet AGL
Clouds: broken clouds at 4000 feet AGL
Weather: -TSRA  (light rain associated with thunderstorm(s))
TAF Text: FM230000 17004KT P6SM SCT050 BKN250
Forecast period: 0000 to 1200 UTC 23 July 2014
Forecast type: FROM: standard forecast or significant change
Winds: from the S (170 degrees) at 5 MPH (4 knots; 2.1 m/s)
Visibility: 6 or more miles (10+ km)
Ceiling: 25000 feet AGL
Clouds: scattered clouds at 5000 feet AGL
broken clouds at 25000 feet AGL
Weather: no significant weather forecast for this period

Find All Airport Services Find A Hotel Find A Rental Car Find A Golf Course Find A Restaurant $100 Hamburger



FBO's on the Field
FBO Company Facility Photos Services Transportation Aviation Fuel Prices: Prices include tax
Catering Weather Repair Courtesy Rental Type 100LL JetA JetA+ MOGAS 8087
 
Dawson/Terrell Co. Airport

This FBO has not yet been rated
FS:Independent
Last Updated: Jun-23
Login to update fuel prices
SS:
Contact Dawson/Terrell Co. AirportMore FBO Information
 
Add another FBO Facility Photos Catering Weather Repair Courtesy Rental Type 100LL JetA JetA+ MOGAS 8087
Services Transportation Aviation Fuel Prices: Prices include tax


GlobalAir.com Airport Resource Center model-print
model-print
model-print
model-print